createdAt,value
2023-05-02T00:00:03.194Z,25.00
2023-05-02T00:01:02.932Z,25.00
2023-05-02T00:02:02.973Z,25.00
2023-05-02T00:03:03.066Z,25.00
2023-05-02T00:04:04.065Z,25.00
2023-05-02T00:05:02.913Z,0.00
2023-05-02T00:06:02.930Z,0.00
2023-05-02T00:07:02.875Z,0.00
2023-05-02T00:08:02.862Z,0.00
2023-05-02T00:09:02.891Z,0.00
2023-05-02T00:10:03.223Z,0.00
2023-05-02T00:11:02.857Z,0.00
2023-05-02T00:12:02.859Z,0.00
2023-05-02T00:13:02.860Z,0.00
2023-05-02T00:14:02.931Z,0.00
2023-05-02T00:15:02.897Z,13.95
2023-05-02T00:16:02.954Z,68.07
2023-05-02T00:17:02.937Z,95.14
2023-05-02T00:18:02.938Z,115.49
2023-05-02T00:19:02.930Z,115.49
2023-05-02T00:20:02.990Z,116.95
2023-05-02T00:21:02.942Z,111.66
2023-05-02T00:22:02.952Z,116.24
2023-05-02T00:23:03.009Z,145.26
2023-05-02T00:24:03.001Z,161.92
2023-05-02T00:25:03.013Z,157.27
2023-05-02T00:26:03.021Z,160.67
2023-05-02T00:27:03.029Z,157.14
2023-05-02T00:28:03.059Z,149.39
2023-05-02T00:29:03.048Z,102.40
2023-05-02T00:30:03.307Z,73.70
2023-05-02T00:31:03.114Z,51.93
2023-05-02T00:32:03.085Z,30.04
2023-05-02T00:33:03.242Z,29.24
2023-05-02T00:34:03.136Z,26.33
2023-05-02T00:35:03.131Z,0.00
2023-05-02T00:36:03.144Z,0.00
2023-05-02T00:37:03.159Z,34.02
2023-05-02T00:38:03.175Z,74.59
2023-05-02T00:39:03.202Z,124.32
2023-05-02T00:40:03.289Z,142.56
2023-05-02T00:41:03.266Z,137.68
2023-05-02T00:42:03.280Z,96.83
2023-05-02T00:43:03.281Z,64.07
2023-05-02T00:44:03.294Z,78.96
2023-05-02T00:45:03.297Z,119.22
2023-05-02T00:46:03.350Z,150.87
2023-05-02T00:47:03.312Z,172.70
2023-05-02T00:48:03.387Z,229.03
2023-05-02T00:49:03.350Z,271.69
2023-05-02T00:50:03.454Z,268.15
2023-05-02T00:51:03.435Z,255.68
2023-05-02T00:52:03.484Z,241.53
2023-05-02T00:53:03.549Z,208.48
2023-05-02T00:54:03.592Z,206.70
2023-05-02T00:55:03.655Z,225.27
2023-05-02T00:56:03.733Z,236.13
2023-05-02T00:57:03.760Z,240.47
2023-05-02T00:58:03.812Z,242.04
2023-05-02T00:59:03.884Z,250.00
2023-05-02T01:00:03.910Z,250.00
2023-05-02T01:01:03.969Z,250.32
2023-05-02T01:02:04.187Z,247.07
2023-05-02T01:03:04.168Z,250.06
2023-05-02T01:04:04.310Z,249.51
2023-05-02T01:05:04.153Z,248.91
2023-05-02T01:06:04.277Z,247.73
2023-05-02T01:07:04.286Z,240.66
2023-05-02T01:08:04.319Z,239.48
2023-05-02T01:09:04.372Z,243.96
2023-05-02T01:10:04.422Z,248.91
2023-05-02T01:11:04.438Z,248.72
2023-05-02T01:12:04.486Z,249.61
2023-05-02T01:13:04.557Z,241.62
2023-05-02T01:14:04.561Z,229.72
2023-05-02T01:15:04.590Z,216.36
2023-05-02T01:16:04.733Z,210.13
2023-05-02T01:17:04.705Z,206.07
2023-05-02T01:18:04.770Z,197.32
2023-05-02T01:19:04.872Z,202.35
2023-05-02T01:20:04.857Z,214.64
2023-05-02T01:21:04.917Z,213.55
2023-05-02T01:22:04.937Z,197.33
2023-05-02T01:23:04.981Z,193.98
2023-05-02T01:24:05.015Z,197.50
2023-05-02T01:25:05.064Z,209.39
2023-05-02T01:26:05.137Z,202.50
2023-05-02T01:27:05.174Z,196.74
2023-05-02T01:28:05.218Z,197.79
2023-05-02T01:29:05.277Z,182.81
2023-05-02T01:30:05.328Z,195.00
2023-05-02T01:31:05.428Z,196.85
2023-05-02T01:32:05.534Z,200.36
2023-05-02T01:33:05.546Z,193.04
2023-05-02T01:34:05.550Z,193.39
2023-05-02T01:35:05.619Z,179.60
2023-05-02T01:36:05.690Z,164.91
2023-05-02T01:37:05.687Z,181.78
2023-05-02T01:38:05.730Z,187.90
2023-05-02T01:39:05.785Z,183.36
2023-05-02T01:40:05.842Z,182.67
2023-05-02T01:41:05.899Z,201.27
2023-05-02T01:42:05.938Z,213.12
2023-05-02T01:43:05.989Z,216.76
2023-05-02T01:44:06.069Z,211.66
2023-05-02T01:45:06.086Z,199.02
2023-05-02T01:46:06.133Z,199.74
2023-05-02T01:47:06.243Z,193.45
2023-05-02T01:48:06.273Z,189.53
2023-05-02T01:49:06.360Z,189.35
2023-05-02T01:50:06.380Z,192.88
2023-05-02T01:51:06.452Z,198.52
2023-05-02T01:52:06.474Z,204.65
2023-05-02T01:53:06.516Z,199.18
2023-05-02T01:54:06.580Z,197.18
2023-05-02T01:55:06.602Z,190.85
2023-05-02T01:56:06.691Z,201.67
2023-05-02T01:57:06.728Z,202.22
2023-05-02T01:58:06.770Z,198.59
2023-05-02T01:59:06.848Z,200.52
2023-05-02T02:00:06.857Z,205.99
2023-05-02T02:01:06.923Z,227.23
2023-05-02T02:02:06.917Z,251.77
2023-05-02T02:03:06.986Z,250.00
2023-05-02T02:04:07.041Z,251.44
2023-05-02T02:05:07.021Z,250.00
2023-05-02T02:06:07.125Z,251.88
2023-05-02T02:07:07.132Z,250.00
2023-05-02T02:08:07.156Z,250.56
2023-05-02T02:09:07.187Z,249.88
2023-05-02T02:10:07.252Z,240.59
2023-05-02T02:11:07.305Z,229.11
2023-05-02T02:12:07.354Z,218.70
2023-05-02T02:13:07.416Z,212.45
2023-05-02T02:14:07.457Z,213.14
2023-05-02T02:15:07.480Z,211.12
2023-05-02T02:16:07.662Z,206.82
2023-05-02T02:17:07.778Z,198.44
2023-05-02T02:18:07.692Z,190.66
2023-05-02T02:19:07.731Z,189.63
2023-05-02T02:20:07.749Z,184.57
2023-05-02T02:21:07.802Z,181.87
2023-05-02T02:22:07.854Z,179.96
2023-05-02T02:23:07.926Z,183.08
2023-05-02T02:24:07.972Z,195.14
2023-05-02T02:25:08.022Z,197.82
2023-05-02T02:26:08.048Z,206.18
2023-05-02T02:27:08.112Z,212.95
2023-05-02T02:28:08.156Z,209.09
2023-05-02T02:29:08.212Z,201.90
2023-05-02T02:30:08.241Z,185.63
2023-05-02T02:31:08.340Z,183.49
2023-05-02T02:32:08.325Z,183.42
2023-05-02T02:33:08.433Z,189.10
2023-05-02T02:34:08.407Z,202.04
2023-05-02T02:35:08.446Z,192.72
2023-05-02T02:36:08.492Z,187.14
2023-05-02T02:37:08.529Z,190.16
2023-05-02T02:38:08.583Z,191.18
2023-05-02T02:39:08.650Z,187.27
2023-05-02T02:40:08.691Z,175.20
2023-05-02T02:41:08.723Z,167.80
2023-05-02T02:42:08.747Z,174.13
2023-05-02T02:43:08.838Z,191.98
2023-05-02T02:44:08.864Z,191.15
2023-05-02T02:45:08.901Z,209.68
2023-05-02T02:46:09.045Z,215.50
2023-05-02T02:47:08.999Z,221.15
2023-05-02T02:48:09.084Z,229.55
2023-05-02T02:49:09.099Z,231.59
2023-05-02T02:50:09.147Z,231.87
2023-05-02T02:51:09.261Z,232.64
2023-05-02T02:52:09.304Z,230.48
2023-05-02T02:53:09.314Z,229.82
2023-05-02T02:54:23.037Z,230.26
2023-05-02T02:55:09.382Z,230.33
2023-05-02T02:56:09.396Z,230.58
2023-05-02T02:57:09.322Z,229.76
2023-05-02T02:58:09.309Z,228.69
2023-05-02T02:59:09.296Z,226.72
2023-05-02T03:00:09.289Z,230.41
2023-05-02T03:01:09.384Z,237.54
2023-05-02T03:02:09.308Z,241.01
2023-05-02T03:03:09.300Z,236.59
2023-05-02T03:04:09.341Z,234.97
2023-05-02T03:05:09.218Z,233.48
2023-05-02T03:06:09.260Z,224.56
2023-05-02T03:07:09.211Z,222.63
2023-05-02T03:08:09.191Z,221.26
2023-05-02T03:09:09.214Z,224.69
2023-05-02T03:10:09.164Z,229.26
2023-05-02T03:11:09.173Z,230.95
2023-05-02T03:12:09.130Z,225.41
2023-05-02T03:13:09.142Z,224.84
2023-05-02T03:14:09.137Z,226.67
2023-05-02T03:15:09.075Z,223.63
2023-05-02T03:16:09.102Z,209.09
2023-05-02T03:17:09.089Z,212.07
2023-05-02T03:18:09.096Z,213.84
2023-05-02T03:19:09.061Z,216.83
2023-05-02T03:20:09.018Z,221.08
2023-05-02T03:21:08.991Z,217.70
2023-05-02T03:22:09.021Z,218.47
2023-05-02T03:23:09.070Z,218.24
2023-05-02T03:24:09.120Z,220.55
2023-05-02T03:25:09.301Z,217.57
2023-05-02T03:26:09.233Z,219.54
2023-05-02T03:27:09.307Z,223.83
2023-05-02T03:28:09.332Z,227.16
2023-05-02T03:29:09.382Z,228.33
2023-05-02T03:30:09.438Z,233.99
2023-05-02T03:31:09.525Z,237.22
2023-05-02T03:32:09.719Z,239.55
2023-05-02T03:33:09.690Z,234.72
2023-05-02T03:34:09.641Z,234.52
2023-05-02T03:35:09.691Z,236.81
2023-05-02T03:36:09.745Z,234.58
2023-05-02T03:37:09.794Z,236.28
2023-05-02T03:38:09.854Z,240.05
2023-05-02T03:39:09.912Z,249.20
2023-05-02T03:40:09.963Z,243.65
2023-05-02T03:41:09.995Z,249.42
2023-05-02T03:42:10.059Z,233.27
2023-05-02T03:43:10.120Z,229.23
2023-05-02T03:44:10.159Z,228.48
2023-05-02T03:45:10.208Z,230.70
2023-05-02T03:46:10.316Z,232.65
2023-05-02T03:47:10.373Z,234.66
2023-05-02T03:48:10.396Z,235.51
2023-05-02T03:49:10.420Z,241.33
2023-05-02T03:50:10.477Z,248.94
2023-05-02T03:51:10.590Z,250.00
2023-05-02T03:52:10.554Z,249.45
2023-05-02T03:53:10.605Z,246.89
2023-05-02T03:54:10.650Z,247.32
2023-05-02T03:55:10.708Z,247.68
2023-05-02T03:56:10.744Z,249.98
2023-05-02T03:57:10.776Z,249.84
2023-05-02T03:58:10.836Z,250.00
2023-05-02T03:59:10.921Z,249.81
2023-05-02T04:00:10.925Z,249.66
2023-05-02T04:01:10.944Z,249.44
2023-05-02T04:02:11.050Z,246.85
2023-05-02T04:03:11.040Z,245.57
2023-05-02T04:04:11.108Z,238.47
2023-05-02T04:05:11.016Z,218.28
2023-05-02T04:06:11.094Z,213.57
2023-05-02T04:07:11.047Z,219.52
2023-05-02T04:08:11.053Z,227.97
2023-05-02T04:09:11.119Z,230.24
2023-05-02T04:10:11.141Z,232.04
2023-05-02T04:11:11.152Z,227.54
2023-05-02T04:12:11.184Z,229.28
2023-05-02T04:13:11.229Z,222.17
2023-05-02T04:14:11.288Z,219.88
2023-05-02T04:15:11.350Z,216.50
2023-05-02T04:16:11.383Z,219.40
2023-05-02T04:17:11.475Z,231.38
2023-05-02T04:18:11.488Z,236.30
2023-05-02T04:19:11.733Z,236.60
2023-05-02T04:20:11.580Z,238.38
2023-05-02T04:21:11.628Z,232.76
2023-05-02T04:22:11.685Z,231.52
2023-05-02T04:23:11.729Z,235.74
2023-05-02T04:24:11.791Z,240.64
2023-05-02T04:25:11.803Z,239.14
2023-05-02T04:26:11.848Z,231.43
2023-05-02T04:27:13.772Z,226.11
2023-05-02T04:28:11.864Z,224.14
2023-05-02T04:29:11.877Z,217.89
2023-05-02T04:30:11.821Z,213.40
2023-05-02T04:31:11.912Z,212.76
2023-05-02T04:32:11.795Z,211.99
2023-05-02T04:33:11.809Z,214.73
2023-05-02T04:34:11.824Z,216.59
2023-05-02T04:35:11.739Z,213.57
2023-05-02T04:36:11.735Z,217.12
2023-05-02T04:37:11.713Z,221.71
2023-05-02T04:38:11.706Z,222.23
2023-05-02T04:39:11.679Z,220.11
2023-05-02T04:40:11.651Z,221.08
2023-05-02T04:41:11.616Z,229.11
2023-05-02T04:42:11.609Z,233.41
2023-05-02T04:43:11.587Z,234.32
2023-05-02T04:44:11.584Z,227.94
2023-05-02T04:45:11.554Z,217.79
2023-05-02T04:46:11.605Z,220.37
2023-05-02T04:47:11.550Z,242.59
2023-05-02T04:48:11.608Z,248.75
2023-05-02T04:49:11.638Z,250.00
2023-05-02T04:50:11.658Z,241.29
2023-05-02T04:51:11.692Z,242.41
2023-05-02T04:52:11.790Z,249.17
2023-05-02T04:53:11.777Z,245.38
2023-05-02T04:54:11.899Z,243.57
2023-05-02T04:55:11.882Z,242.80
2023-05-02T04:56:11.910Z,246.87
2023-05-02T04:57:11.992Z,248.07
2023-05-02T04:58:12.010Z,246.14
2023-05-02T04:59:12.054Z,247.93
2023-05-02T05:00:12.075Z,256.22
2023-05-02T05:01:12.143Z,250.20
2023-05-02T05:02:13.256Z,247.17
2023-05-02T05:03:12.287Z,244.64
2023-05-02T05:04:12.385Z,242.52
2023-05-02T05:05:12.304Z,227.22
2023-05-02T05:06:12.367Z,216.04
2023-05-02T05:07:12.846Z,227.04
2023-05-02T05:08:12.448Z,232.87
2023-05-02T05:09:12.495Z,223.31
2023-05-02T05:10:12.770Z,221.16
2023-05-02T05:11:12.559Z,239.09
2023-05-02T05:12:12.603Z,250.56
2023-05-02T05:13:12.646Z,246.02
2023-05-02T05:14:12.708Z,238.41
2023-05-02T05:15:12.750Z,225.82
2023-05-02T05:16:12.855Z,215.78
2023-05-02T05:17:12.837Z,210.18
2023-05-02T05:18:12.950Z,206.39
2023-05-02T05:19:12.977Z,209.29
2023-05-02T05:20:13.279Z,213.91
2023-05-02T05:21:13.071Z,227.99
2023-05-02T05:22:13.126Z,239.51
2023-05-02T05:23:13.146Z,248.18
2023-05-02T05:24:13.202Z,250.05
2023-05-02T05:25:13.267Z,249.70
2023-05-02T05:26:13.264Z,250.00
2023-05-02T05:27:13.797Z,257.26
2023-05-02T05:28:13.374Z,256.21
2023-05-02T05:29:13.399Z,250.80
2023-05-02T05:30:13.425Z,249.99
2023-05-02T05:31:16.019Z,249.90
2023-05-02T05:32:13.995Z,249.91
2023-05-02T05:33:13.520Z,243.80
2023-05-02T05:34:13.425Z,239.83
2023-05-02T05:35:14.322Z,236.56
2023-05-02T05:36:13.392Z,228.84
2023-05-02T05:37:13.815Z,226.06
2023-05-02T05:38:13.390Z,226.33
2023-05-02T05:39:13.353Z,226.99
2023-05-02T05:40:13.340Z,228.02
2023-05-02T05:41:13.327Z,221.26
2023-05-02T05:42:13.822Z,217.49
2023-05-02T05:43:13.335Z,215.49
2023-05-02T05:44:13.302Z,211.14
2023-05-02T05:45:13.305Z,204.09
2023-05-02T05:46:13.349Z,201.87
2023-05-02T05:47:13.851Z,190.78
2023-05-02T05:48:13.502Z,192.39
2023-05-02T05:49:13.461Z,201.08
2023-05-02T05:50:13.783Z,205.51
2023-05-02T05:51:13.610Z,276.29
2023-05-02T05:52:13.583Z,238.81
2023-05-02T05:53:13.580Z,211.49
2023-05-02T05:54:13.634Z,198.32
2023-05-02T05:55:13.797Z,196.55
2023-05-02T05:56:13.774Z,196.41
2023-05-02T05:57:13.864Z,195.09
2023-05-02T05:58:13.787Z,193.92
2023-05-02T05:59:13.789Z,192.85
2023-05-02T06:00:13.834Z,188.59
2023-05-02T06:01:13.883Z,191.22
2023-05-02T06:02:14.428Z,193.54
2023-05-02T06:03:14.051Z,190.38
2023-05-02T06:04:14.196Z,190.54
2023-05-02T06:05:14.065Z,192.31
2023-05-02T06:06:14.198Z,193.60
2023-05-02T06:07:14.918Z,189.91
2023-05-02T06:08:14.243Z,190.63
2023-05-02T06:09:14.303Z,193.60
2023-05-02T06:10:14.360Z,191.99
2023-05-02T06:11:14.458Z,193.58
2023-05-02T06:12:14.857Z,194.95
2023-05-02T06:13:14.570Z,190.63
2023-05-02T06:14:14.647Z,182.26
2023-05-02T06:15:14.822Z,173.80
2023-05-02T06:16:14.819Z,169.02
2023-05-02T06:17:15.581Z,170.92
2023-05-02T06:18:14.880Z,165.57
2023-05-02T06:19:14.911Z,163.47
2023-05-02T06:20:16.591Z,167.38
2023-05-02T06:21:14.915Z,162.12
2023-05-02T06:22:14.914Z,153.94
2023-05-02T06:23:15.329Z,156.47
2023-05-02T06:24:14.914Z,159.65
2023-05-02T06:25:14.899Z,166.36
2023-05-02T06:26:15.368Z,169.81
2023-05-02T06:27:14.890Z,169.21
2023-05-02T06:28:14.902Z,163.57
2023-05-02T06:29:14.887Z,164.66
2023-05-02T06:30:15.291Z,168.84
2023-05-02T06:31:14.877Z,169.52
2023-05-02T06:32:14.868Z,170.97
2023-05-02T06:33:14.854Z,177.01
2023-05-02T06:34:14.830Z,183.74
2023-05-02T06:35:15.294Z,175.68
2023-05-02T06:36:14.822Z,160.60
2023-05-02T06:37:14.807Z,153.12
2023-05-02T06:38:14.810Z,152.19
2023-05-02T06:39:14.850Z,152.00
2023-05-02T06:40:15.286Z,148.59
2023-05-02T06:41:17.246Z,150.03
2023-05-02T06:42:14.809Z,150.04
2023-05-02T06:43:15.297Z,150.14
2023-05-02T06:44:14.831Z,144.67
2023-05-02T06:45:14.793Z,136.81
2023-05-02T06:46:14.803Z,134.39
2023-05-02T06:47:14.847Z,133.41
2023-05-02T06:48:14.831Z,131.73
2023-05-02T06:49:14.775Z,128.53
2023-05-02T06:50:14.802Z,125.29
2023-05-02T06:51:14.732Z,106.30
2023-05-02T06:52:14.701Z,102.84
2023-05-02T06:53:14.819Z,84.85
2023-05-02T06:54:14.729Z,90.42
2023-05-02T06:55:14.689Z,75.49
2023-05-02T06:56:14.645Z,75.12
2023-05-02T06:57:14.613Z,79.41
2023-05-02T06:58:14.596Z,91.72
2023-05-02T06:59:14.810Z,104.55
2023-05-02T07:00:14.553Z,101.86
2023-05-02T07:01:14.554Z,75.70
2023-05-02T07:02:14.503Z,67.27
2023-05-02T07:03:14.478Z,74.85
2023-05-02T07:04:14.831Z,78.92
2023-05-02T07:05:14.807Z,87.15
2023-05-02T07:06:14.482Z,90.44
2023-05-02T07:07:14.466Z,101.32
2023-05-02T07:08:14.542Z,108.14
2023-05-02T07:09:14.533Z,89.83
2023-05-02T07:10:14.793Z,79.72
2023-05-02T07:11:14.578Z,80.38
2023-05-02T07:12:14.546Z,86.16
2023-05-02T07:13:14.854Z,88.14
2023-05-02T07:14:14.557Z,98.29
2023-05-02T07:15:14.797Z,101.61
2023-05-02T07:16:14.617Z,104.88
2023-05-02T07:17:14.593Z,107.02
2023-05-02T07:18:14.853Z,105.47
2023-05-02T07:19:14.626Z,107.01
2023-05-02T07:20:14.639Z,105.51
2023-05-02T07:21:14.650Z,101.73
2023-05-02T07:22:14.656Z,90.36
2023-05-02T07:23:14.857Z,98.34
2023-05-02T07:24:14.723Z,92.28
2023-05-02T07:25:15.433Z,80.48
2023-05-02T07:26:14.824Z,88.63
2023-05-02T07:27:14.907Z,94.57
2023-05-02T07:28:15.329Z,84.91
2023-05-02T07:29:14.969Z,83.38
2023-05-02T07:30:15.312Z,76.19
2023-05-02T07:31:16.117Z,69.64
2023-05-02T07:32:15.113Z,62.47
2023-05-02T07:33:15.195Z,69.40
2023-05-02T07:34:15.202Z,66.93
2023-05-02T07:35:15.365Z,63.36
2023-05-02T07:36:15.215Z,74.66
2023-05-02T07:37:15.486Z,83.28
2023-05-02T07:38:15.288Z,89.35
2023-05-02T07:39:15.329Z,86.50
2023-05-02T07:40:15.491Z,78.98
2023-05-02T07:41:15.992Z,80.19
2023-05-02T07:42:15.389Z,77.92
2023-05-02T07:43:15.437Z,72.53
2023-05-02T07:44:16.444Z,69.18
2023-05-02T07:45:15.842Z,63.20
2023-05-02T07:46:15.551Z,55.24
2023-05-02T07:47:15.471Z,24.95
2023-05-02T07:48:15.864Z,43.13
2023-05-02T07:49:15.595Z,63.50
2023-05-02T07:50:15.613Z,78.25
2023-05-02T07:51:15.641Z,83.70
2023-05-02T07:52:15.830Z,76.96
2023-05-02T07:53:15.820Z,79.26
2023-05-02T07:54:15.663Z,79.59
2023-05-02T07:55:15.711Z,81.34
2023-05-02T07:56:15.833Z,78.97
2023-05-02T07:57:15.849Z,84.03
2023-05-02T07:58:17.304Z,83.77
2023-05-02T07:59:16.122Z,94.58
2023-05-02T08:00:16.321Z,100.95
2023-05-02T08:01:16.167Z,108.64
2023-05-02T08:02:16.228Z,112.66
2023-05-02T08:03:16.350Z,112.61
2023-05-02T08:04:16.474Z,114.48
2023-05-02T08:05:16.863Z,99.49
2023-05-02T08:06:16.420Z,85.83
2023-05-02T08:07:16.494Z,78.13
2023-05-02T08:08:16.820Z,75.93
2023-05-02T08:09:16.706Z,74.40
2023-05-02T08:10:16.825Z,55.89
2023-05-02T08:11:16.825Z,44.94
2023-05-02T08:12:16.889Z,47.31
2023-05-02T08:13:16.971Z,41.34
2023-05-02T08:14:17.333Z,50.28
2023-05-02T08:15:17.379Z,52.22
2023-05-02T08:16:17.253Z,64.39
2023-05-02T08:17:17.321Z,74.84
2023-05-02T08:18:17.415Z,67.99
2023-05-02T08:19:17.823Z,64.32
2023-05-02T08:20:17.823Z,58.49
2023-05-02T08:21:17.705Z,70.25
2023-05-02T08:22:17.777Z,76.89
2023-05-02T08:23:18.330Z,68.00
2023-05-02T08:24:17.908Z,53.14
2023-05-02T08:25:18.023Z,53.47
2023-05-02T08:26:18.175Z,66.96
2023-05-02T08:27:18.209Z,80.05
2023-05-02T08:28:18.318Z,77.48
2023-05-02T08:29:18.394Z,79.10
2023-05-02T08:30:18.457Z,77.49
2023-05-02T08:31:18.596Z,72.07
2023-05-02T08:32:18.646Z,63.24
2023-05-02T08:33:18.930Z,56.43
2023-05-02T08:34:18.758Z,50.28
2023-05-02T08:35:18.863Z,38.38
2023-05-02T08:36:26.311Z,25.00
2023-05-02T08:37:18.952Z,6.08
2023-05-02T08:38:19.327Z,11.82
2023-05-02T08:39:18.997Z,24.25
2023-05-02T08:40:30.125Z,40.30
2023-05-02T08:41:19.018Z,26.37
2023-05-02T08:42:19.035Z,31.79
2023-05-02T08:43:19.033Z,40.03
2023-05-02T08:44:19.346Z,45.48
2023-05-02T08:45:19.027Z,65.34
2023-05-02T08:46:19.171Z,66.29
2023-05-02T08:47:19.298Z,29.99
2023-05-02T08:48:19.151Z,26.06
2023-05-02T08:49:19.316Z,29.12
2023-05-02T08:50:19.010Z,12.77
2023-05-02T08:52:17.997Z,68.70
2023-05-02T08:53:19.009Z,69.34
2023-05-02T08:54:19.017Z,22.39
2023-05-02T08:55:19.363Z,16.96
2023-05-02T08:56:19.023Z,46.39
2023-05-02T08:57:19.058Z,64.46
2023-05-02T08:58:19.559Z,66.61
2023-05-02T08:59:19.019Z,66.50
2023-05-02T09:00:19.018Z,60.40
2023-05-02T09:01:19.120Z,65.00
2023-05-02T09:02:19.042Z,54.68
2023-05-02T09:03:21.351Z,63.77
2023-05-02T09:04:19.062Z,64.20
2023-05-02T09:05:19.361Z,66.77
2023-05-02T09:06:19.154Z,69.98
2023-05-02T09:07:19.059Z,72.94
2023-05-02T09:08:19.063Z,53.60
2023-05-02T09:09:19.605Z,43.25
2023-05-02T09:10:19.037Z,22.50
2023-05-02T09:11:19.321Z,12.36
2023-05-02T09:12:19.007Z,8.56
2023-05-02T09:13:19.007Z,0.00
2023-05-02T09:14:18.981Z,0.00
2023-05-02T09:15:20.880Z,0.00
2023-05-02T09:16:19.367Z,1.30
2023-05-02T09:17:18.934Z,9.82
2023-05-02T09:18:18.926Z,24.98
2023-05-02T09:19:19.346Z,25.00
2023-05-02T09:20:19.335Z,22.77
2023-05-02T09:21:20.648Z,23.56
2023-05-02T09:22:18.862Z,4.02
2023-05-02T09:23:18.873Z,9.23
2023-05-02T09:24:19.345Z,25.24
2023-05-02T09:25:19.376Z,22.29
2023-05-02T09:26:18.894Z,6.48
2023-05-02T09:27:18.908Z,0.00
2023-05-02T09:28:19.350Z,11.17
2023-05-02T09:29:18.821Z,19.99
2023-05-02T09:30:19.020Z,19.98
2023-05-02T09:31:26.818Z,30.29
2023-05-02T09:32:18.895Z,30.58
2023-05-02T09:33:19.287Z,30.87
2023-05-02T09:34:18.840Z,30.42
2023-05-02T09:35:18.872Z,21.20
2023-05-02T09:36:18.851Z,17.48
2023-05-02T09:37:18.772Z,16.18
2023-05-02T09:38:18.787Z,30.04
2023-05-02T09:39:18.791Z,26.88
2023-05-02T09:40:18.807Z,24.85
2023-05-02T09:41:18.778Z,24.59
2023-05-02T09:42:18.758Z,9.45
2023-05-02T09:43:18.833Z,5.43
2023-05-02T09:44:18.866Z,14.55
2023-05-02T09:45:18.683Z,14.40
2023-05-02T09:46:18.697Z,22.42
2023-05-02T09:47:18.635Z,24.36
2023-05-02T09:48:18.610Z,18.90
2023-05-02T09:49:18.610Z,32.86
2023-05-02T09:50:18.568Z,25.52
2023-05-02T09:51:18.548Z,0.00
2023-05-02T09:52:18.506Z,0.00
2023-05-02T09:53:18.830Z,0.00
2023-05-02T09:54:18.456Z,0.00
2023-05-02T09:55:18.441Z,0.00
2023-05-02T09:56:19.349Z,0.00
2023-05-02T09:57:18.532Z,0.00
2023-05-02T09:58:18.536Z,0.00
2023-05-02T09:59:18.578Z,0.00
2023-05-02T10:00:18.640Z,3.97
2023-05-02T10:01:18.926Z,25.97
2023-05-02T10:02:18.716Z,27.99
2023-05-02T10:03:18.910Z,24.55
2023-05-02T10:04:18.948Z,24.86
2023-05-02T10:05:18.767Z,8.62
2023-05-02T10:06:18.808Z,0.00
2023-05-02T10:07:18.804Z,0.00
2023-05-02T10:08:18.849Z,0.00
2023-05-02T10:09:21.587Z,0.00
2023-05-02T10:10:18.765Z,0.00
2023-05-02T10:11:18.718Z,0.00
2023-05-02T10:12:18.685Z,0.00
2023-05-02T10:13:18.926Z,0.00
2023-05-02T10:14:18.882Z,0.00
2023-05-02T10:15:18.624Z,0.00
2023-05-02T10:16:18.662Z,0.00
2023-05-02T10:17:18.580Z,0.00
2023-05-02T10:18:18.865Z,0.00
2023-05-02T10:19:18.919Z,0.00
2023-05-02T10:20:18.512Z,0.00
2023-05-02T10:21:18.841Z,0.00
2023-05-02T10:22:18.421Z,0.00
2023-05-02T10:23:18.864Z,0.00
2023-05-02T10:24:18.323Z,0.00
2023-05-02T10:25:18.271Z,0.00
2023-05-02T10:26:18.228Z,0.00
2023-05-02T10:27:18.169Z,0.98
2023-05-02T10:28:18.374Z,0.00
2023-05-02T10:29:18.081Z,0.00
2023-05-02T10:30:18.036Z,0.00
2023-05-02T10:31:18.389Z,0.00
2023-05-02T10:32:17.958Z,0.00
2023-05-02T10:33:17.891Z,0.00
2023-05-02T10:34:17.909Z,0.00
2023-05-02T10:35:17.805Z,0.00
2023-05-02T10:36:17.872Z,2.02
2023-05-02T10:37:17.753Z,0.00
2023-05-02T10:38:17.699Z,0.00
2023-05-02T10:39:17.708Z,0.00
2023-05-02T10:40:17.659Z,0.00
2023-05-02T10:41:17.853Z,0.00
2023-05-02T10:42:17.549Z,0.00
2023-05-02T10:43:17.506Z,0.00
2023-05-02T10:44:17.500Z,1.20
2023-05-02T10:45:17.852Z,7.38
2023-05-02T10:46:17.891Z,15.62
2023-05-02T10:47:17.516Z,20.54
2023-05-02T10:48:17.891Z,13.35
2023-05-02T10:49:17.822Z,22.37
2023-05-02T10:50:17.559Z,25.00
2023-05-02T10:51:17.873Z,32.63
2023-05-02T10:52:17.594Z,41.49
2023-05-02T10:53:17.880Z,41.90
2023-05-02T10:54:17.538Z,40.51
2023-05-02T10:55:17.544Z,48.46
2023-05-02T10:56:17.847Z,55.27
2023-05-02T10:57:17.510Z,66.95
2023-05-02T10:58:17.494Z,73.69
2023-05-02T10:59:17.472Z,78.98
2023-05-02T11:00:17.448Z,79.72
2023-05-02T11:01:17.883Z,83.55
2023-05-02T11:02:17.913Z,93.58
2023-05-02T11:03:17.500Z,82.14
2023-05-02T11:04:17.297Z,71.84
2023-05-02T11:05:18.194Z,58.72
2023-05-02T11:06:17.900Z,43.75
2023-05-02T11:07:17.341Z,36.98
2023-05-02T11:08:19.287Z,31.71
2023-05-02T11:09:17.324Z,32.16
2023-05-02T11:10:17.390Z,35.40
2023-05-02T11:11:17.335Z,43.75
2023-05-02T11:12:17.374Z,59.22
2023-05-02T11:13:17.392Z,77.09
2023-05-02T11:14:18.537Z,78.60
2023-05-02T11:15:17.353Z,75.70
2023-05-02T11:16:17.272Z,71.31
2023-05-02T11:17:17.212Z,75.49
2023-05-02T11:18:17.422Z,84.13
2023-05-02T11:19:17.223Z,88.22
2023-05-02T11:20:17.222Z,86.62
2023-05-02T11:21:17.355Z,70.17
2023-05-02T11:22:17.242Z,59.38
2023-05-02T11:23:17.240Z,53.97
2023-05-02T11:24:17.353Z,55.27
2023-05-02T11:25:17.224Z,47.62
2023-05-02T11:26:17.356Z,39.15
2023-05-02T11:27:17.236Z,37.53
2023-05-02T11:28:17.377Z,26.32
2023-05-02T11:29:17.360Z,19.71
2023-05-02T11:30:17.190Z,22.80
2023-05-02T11:31:17.399Z,30.58
2023-05-02T11:32:17.215Z,39.80
2023-05-02T11:33:17.607Z,33.14
2023-05-02T11:34:17.110Z,33.48
2023-05-02T11:35:17.149Z,34.36
2023-05-02T11:36:17.370Z,34.89
2023-05-02T11:37:17.149Z,32.87
2023-05-02T11:38:17.465Z,18.58
2023-05-02T11:39:17.109Z,5.42
2023-05-02T11:40:17.172Z,3.87
2023-05-02T11:41:17.187Z,9.78
2023-05-02T11:42:20.436Z,14.57
2023-05-02T11:43:17.390Z,14.15
2023-05-02T11:44:17.169Z,7.60
2023-05-02T11:45:17.119Z,5.25
2023-05-02T11:46:17.159Z,4.24
2023-05-02T11:47:17.064Z,12.51
2023-05-02T11:48:17.514Z,12.93
2023-05-02T11:49:17.426Z,13.12
2023-05-02T11:50:16.980Z,13.73
2023-05-02T11:51:16.942Z,17.33
2023-05-02T11:52:16.907Z,20.04
2023-05-02T11:53:17.363Z,30.05
2023-05-02T11:54:16.884Z,39.71
2023-05-02T11:55:17.846Z,38.85
2023-05-02T11:56:16.873Z,37.90
2023-05-02T11:57:16.800Z,27.61
2023-05-02T11:58:16.803Z,34.98
2023-05-02T11:59:16.736Z,47.27
2023-05-02T12:00:16.698Z,54.17
2023-05-02T12:01:16.888Z,55.42
2023-05-02T12:02:16.720Z,53.68
2023-05-02T12:03:17.034Z,74.12
2023-05-02T12:04:16.579Z,101.34
2023-05-02T12:05:16.573Z,121.78
2023-05-02T12:06:16.673Z,135.96
2023-05-02T12:07:16.693Z,153.55
2023-05-02T12:08:16.873Z,165.60
2023-05-02T12:09:16.568Z,167.88
2023-05-02T12:10:16.551Z,160.65
2023-05-02T12:11:17.101Z,149.41
2023-05-02T12:12:16.629Z,149.19
2023-05-02T12:13:16.969Z,147.98
2023-05-02T12:14:16.738Z,147.42
2023-05-02T12:15:16.762Z,156.42
2023-05-02T12:16:17.114Z,160.17
2023-05-02T12:17:17.316Z,166.11
2023-05-02T12:18:17.853Z,159.91
2023-05-02T12:19:16.992Z,155.50
2023-05-02T12:20:17.041Z,157.61
2023-05-02T12:21:17.029Z,156.31
2023-05-02T12:22:17.522Z,153.13
2023-05-02T12:23:17.457Z,152.79
2023-05-02T12:24:17.098Z,156.03
2023-05-02T12:25:17.396Z,164.89
2023-05-02T12:26:17.386Z,172.80
2023-05-02T12:27:17.218Z,175.06
2023-05-02T12:28:17.418Z,173.12
2023-05-02T12:29:17.576Z,169.07
2023-05-02T12:30:17.609Z,173.12
2023-05-02T12:31:17.705Z,171.51
2023-05-02T12:32:17.818Z,171.43
2023-05-02T12:33:17.888Z,171.72
2023-05-02T12:34:17.444Z,164.79
2023-05-02T12:35:17.507Z,162.80
2023-05-02T12:36:17.893Z,162.33
2023-05-02T12:37:17.634Z,156.66
2023-05-02T12:38:17.633Z,154.65
2023-05-02T12:39:17.688Z,152.92
2023-05-02T12:40:17.902Z,151.26
2023-05-02T12:41:17.842Z,158.78
2023-05-02T12:42:17.911Z,163.26